createdAt,value
2022-09-29T00:02:39.730Z,1.73
2022-09-29T00:05:38.399Z,2.13
2022-09-29T00:08:36.490Z,1.70
2022-09-29T00:11:35.391Z,2.67
2022-09-29T00:14:33.464Z,2.47
2022-09-29T00:17:32.071Z,1.50
2022-09-29T00:20:30.145Z,1.95
2022-09-29T00:23:30.169Z,1.77
2022-09-29T00:26:28.258Z,1.80
2022-09-29T00:29:26.963Z,1.67
2022-09-29T00:32:25.207Z,2.00
2022-09-29T00:35:23.822Z,1.80
2022-09-29T00:38:21.849Z,1.33
2022-09-29T00:41:24.720Z,2.20
2022-09-29T00:44:45.757Z,2.10
2022-09-29T00:47:48.888Z,2.15
2022-09-29T00:50:52.605Z,1.95
2022-09-29T00:53:51.475Z,1.90
2022-09-29T00:56:51.904Z,2.33
2022-09-29T00:59:57.382Z,1.70
2022-09-29T01:03:02.574Z,1.70
2022-09-29T01:06:10.758Z,1.80
2022-09-29T01:09:15.226Z,1.95
2022-09-29T01:12:13.868Z,1.67
2022-09-29T01:15:14.123Z,1.80
2022-09-29T01:18:12.936Z,2.08
2022-09-29T01:21:46.143Z,2.42
2022-09-29T01:25:12.078Z,1.48
2022-09-29T01:28:47.939Z,1.70
2022-09-29T01:32:10.126Z,1.88
2022-09-29T01:35:23.950Z,1.73
2022-09-29T01:38:37.066Z,1.73
2022-09-29T01:42:00.671Z,2.97
2022-09-29T01:45:18.799Z,2.40
2022-09-29T01:48:23.358Z,1.65
2022-09-29T01:51:32.695Z,1.98
2022-09-29T01:54:44.623Z,2.08
2022-09-29T01:58:02.834Z,2.08
2022-09-29T02:01:05.459Z,2.25
2022-09-29T02:04:22.080Z,2.17
2022-09-29T02:07:27.397Z,2.40
2022-09-29T02:10:31.901Z,1.85
2022-09-29T02:13:35.352Z,2.28
2022-09-29T02:16:39.615Z,1.63
2022-09-29T02:19:43.633Z,1.92
2022-09-29T02:22:43.032Z,2.50
2022-09-29T02:25:41.650Z,2.60
2022-09-29T02:28:44.018Z,2.05
2022-09-29T02:31:42.898Z,2.08
2022-09-29T02:34:46.521Z,2.40
2022-09-29T02:37:57.685Z,3.20
2022-09-29T02:41:12.366Z,2.72
2022-09-29T02:44:45.873Z,1.52
2022-09-29T02:48:02.207Z,2.08
2022-09-29T02:51:19.839Z,2.00
2022-09-29T02:54:40.539Z,1.58
2022-09-29T02:57:49.615Z,1.77
2022-09-29T03:00:48.761Z,1.63
2022-09-29T03:03:46.954Z,1.60
2022-09-29T03:06:45.631Z,2.00
2022-09-29T03:09:44.509Z,2.05
2022-09-29T03:12:43.441Z,1.83
2022-09-29T03:15:41.640Z,2.17
2022-09-29T03:18:40.254Z,2.10
2022-09-29T03:21:38.419Z,2.15
2022-09-29T03:24:37.409Z,2.30
2022-09-29T03:27:37.315Z,2.33
2022-09-29T03:30:35.908Z,2.38
2022-09-29T03:33:34.174Z,3.58
2022-09-29T03:36:32.831Z,3.15
2022-09-29T03:39:31.042Z,3.13
2022-09-29T03:42:30.165Z,2.75
2022-09-29T03:45:28.366Z,3.28
2022-09-29T03:48:32.007Z,2.78
2022-09-29T03:51:30.057Z,2.42
2022-09-29T07:01:43.269Z,4.70
2022-09-29T07:04:41.485Z,5.60
2022-09-29T07:07:54.639Z,4.43
2022-09-29T07:11:08.795Z,5.15
2022-09-29T07:14:15.589Z,4.85
2022-09-29T07:17:18.124Z,4.55
2022-09-29T07:20:17.607Z,5.35
2022-09-29T07:23:47.088Z,4.07
2022-09-29T09:21:56.008Z,7.55
2022-09-29T09:25:02.172Z,7.97
2022-09-29T09:28:18.302Z,7.68
2022-09-29T09:31:24.340Z,7.97
2022-09-29T09:34:41.459Z,8.02
2022-09-29T09:37:46.738Z,7.43
2022-09-29T09:40:48.745Z,7.25
2022-09-29T09:43:54.472Z,8.95
2022-09-29T09:47:00.043Z,7.55
2022-09-29T09:50:20.387Z,6.45
2022-09-29T09:53:36.537Z,7.35
2022-09-29T09:56:57.745Z,5.70
2022-09-29T10:00:16.040Z,7.22
2022-09-29T10:03:17.043Z,4.95
2022-09-29T10:06:15.688Z,6.47
2022-09-29T10:09:16.479Z,5.18
2022-09-29T10:12:18.280Z,4.90
2022-09-29T10:15:26.158Z,4.63
2022-09-29T10:18:31.752Z,5.95
2022-09-29T10:21:43.940Z,5.63
2022-09-29T10:24:42.315Z,6.07
2022-09-29T10:27:45.173Z,5.80
2022-09-29T10:30:44.075Z,5.88
2022-09-29T10:33:49.392Z,6.30
2022-09-29T10:36:57.065Z,6.38
2022-09-29T10:43:25.150Z,5.67
2022-09-29T10:46:49.077Z,5.32
2022-09-29T10:49:47.538Z,5.75
2022-09-29T10:52:57.793Z,6.47
2022-09-29T10:55:57.799Z,7.40
2022-09-29T10:59:04.683Z,6.70
2022-09-29T11:02:05.034Z,5.63
2022-09-29T11:05:15.706Z,5.93
2022-09-29T11:08:14.318Z,8.25
2022-09-29T11:11:25.389Z,8.38
2022-09-29T11:14:42.095Z,9.20
2022-09-29T11:17:49.339Z,8.90
2022-09-29T11:20:53.853Z,8.43
2022-09-29T11:24:05.858Z,8.35
2022-09-29T11:27:26.761Z,7.90
2022-09-29T11:30:38.906Z,8.40
2022-09-29T11:33:55.703Z,7.97
2022-09-29T11:37:11.044Z,8.63
2022-09-29T11:40:19.891Z,6.75
2022-09-29T11:43:43.842Z,7.70
2022-09-29T11:47:14.713Z,6.72
2022-09-29T11:50:35.573Z,6.43
2022-09-29T11:53:57.385Z,5.53
2022-09-29T11:57:19.629Z,5.82
2022-09-29T12:00:23.675Z,6.13
2022-09-29T12:03:42.532Z,6.65
2022-09-29T12:06:56.276Z,7.57
2022-09-29T12:10:39.412Z,14.25
2022-09-29T12:13:57.026Z,9.57
2022-09-29T12:17:13.824Z,5.45
2022-09-29T12:20:43.518Z,6.57
2022-09-29T12:23:47.115Z,5.03
2022-09-29T12:26:51.882Z,5.65
2022-09-29T12:30:08.790Z,5.28
2022-09-29T13:20:54.418Z,5.00
2022-09-29T13:24:16.847Z,4.82
2022-09-29T13:27:33.322Z,5.93
2022-09-29T13:30:37.790Z,4.73
2022-09-29T13:33:36.178Z,4.93
2022-09-29T13:36:42.924Z,4.85
2022-09-29T13:39:44.771Z,4.63
2022-09-29T13:42:46.109Z,5.32
2022-09-29T13:45:45.214Z,5.65
2022-09-29T13:49:04.613Z,6.32
2022-09-29T13:52:38.198Z,5.90
2022-09-29T13:55:54.788Z,5.65
2022-09-29T13:59:01.413Z,4.65
2022-09-29T14:02:00.815Z,4.32
2022-09-29T14:04:59.386Z,4.38
2022-09-29T14:08:18.849Z,5.47
2022-09-29T14:11:23.303Z,5.93
2022-09-29T14:14:43.664Z,4.82
2022-09-29T14:17:47.860Z,4.32
2022-09-29T14:24:43.032Z,4.88
2022-09-29T14:27:52.729Z,3.70
2022-09-29T14:30:57.007Z,3.78
2022-09-29T14:33:56.877Z,4.43
2022-09-29T14:36:58.656Z,3.72
2022-09-29T14:40:17.280Z,3.70
2022-09-29T14:43:17.961Z,3.80
2022-09-29T14:46:57.784Z,3.58
2022-09-29T14:50:31.668Z,4.22
2022-09-29T14:53:59.630Z,4.45
2022-09-29T14:57:29.273Z,4.28
2022-09-29T15:00:39.099Z,4.75
2022-09-29T15:03:49.240Z,4.32
2022-09-29T15:06:50.163Z,4.30
2022-09-29T15:09:52.069Z,5.05
2022-09-29T15:12:50.977Z,4.57
2022-09-29T15:15:50.848Z,4.45
2022-09-29T15:19:13.814Z,4.80
2022-09-29T15:22:35.799Z,3.78
2022-09-29T15:25:39.508Z,4.72
2022-09-29T15:28:40.679Z,5.28
2022-09-29T15:31:40.145Z,4.35
2022-09-29T15:34:40.064Z,4.30
2022-09-29T15:38:17.629Z,6.93
2022-09-29T15:41:19.090Z,9.68
2022-09-29T15:44:20.483Z,9.00
2022-09-29T15:47:23.644Z,9.85
2022-09-29T15:50:25.052Z,9.35
2022-09-29T15:53:26.114Z,8.77
2022-09-29T15:56:27.514Z,7.60
2022-09-29T15:59:43.773Z,6.43
2022-09-29T16:02:43.773Z,6.15
2022-09-29T16:05:49.035Z,5.90
2022-09-29T16:08:51.031Z,3.97
2022-09-29T16:11:50.102Z,4.65
2022-09-29T16:14:53.892Z,5.18
2022-09-29T16:17:52.361Z,5.38
2022-09-29T16:20:51.896Z,6.47
2022-09-29T16:24:12.729Z,7.88
2022-09-29T16:27:49.758Z,6.55
2022-09-29T16:31:04.082Z,5.85
2022-09-29T16:34:03.128Z,7.50
2022-09-29T16:37:06.101Z,6.00
2022-09-29T16:40:05.308Z,6.30
2022-09-29T16:43:03.631Z,6.25
2022-09-29T16:46:06.961Z,8.05
2022-09-29T16:54:02.844Z,6.22
2022-09-29T16:57:22.075Z,6.45
2022-09-29T17:00:20.613Z,5.25
2022-09-29T17:03:19.926Z,4.38
2022-09-29T17:06:18.331Z,4.20
2022-09-29T17:09:23.831Z,5.13
2022-09-29T17:12:23.318Z,4.72
2022-09-29T17:15:23.578Z,5.47
2022-09-29T17:18:23.943Z,5.38
2022-09-29T17:21:22.904Z,5.40
2022-09-29T17:24:21.802Z,5.65
2022-09-29T17:27:36.499Z,5.32
2022-09-29T17:30:37.907Z,5.70
2022-09-29T17:33:37.691Z,5.80
2022-09-29T17:36:37.709Z,5.95
2022-09-29T17:39:36.455Z,5.13
2022-09-29T17:42:35.111Z,4.93
2022-09-29T17:45:35.918Z,6.28
2022-09-29T17:48:35.489Z,4.00
2022-09-29T17:51:34.245Z,3.50
2022-09-29T17:54:33.880Z,4.35
2022-09-29T17:57:33.727Z,4.22
2022-09-29T18:00:40.886Z,4.38
2022-09-29T18:03:42.788Z,4.10
2022-09-29T18:06:42.733Z,3.80
2022-09-29T18:09:47.808Z,3.70
2022-09-29T18:12:46.487Z,3.75
2022-09-29T18:15:46.183Z,3.33
2022-09-29T18:18:45.737Z,3.75
2022-09-29T18:21:45.146Z,3.78
2022-09-29T18:24:43.578Z,4.05
2022-09-29T18:27:42.805Z,4.28
2022-09-29T18:30:41.341Z,4.00
2022-09-29T18:33:40.288Z,3.58
2022-09-29T18:39:38.558Z,3.67
2022-09-29T18:42:53.759Z,3.85
2022-09-29T18:45:53.856Z,3.60
2022-09-29T18:48:52.285Z,3.65
2022-09-29T18:51:53.208Z,4.38
2022-09-29T18:54:54.531Z,4.13
2022-09-29T18:57:54.879Z,4.20
2022-09-29T19:00:55.811Z,3.80
2022-09-29T19:03:54.733Z,3.60
2022-09-29T19:06:53.139Z,3.78
2022-09-29T19:09:52.053Z,4.50
2022-09-29T19:12:51.438Z,4.25
2022-09-29T19:15:51.092Z,4.20
2022-09-29T19:18:50.075Z,4.72
2022-09-29T19:21:48.812Z,5.68
2022-09-29T19:24:47.798Z,4.82
2022-09-29T19:27:47.325Z,4.57
2022-09-29T19:30:47.209Z,4.25
2022-09-29T19:33:46.686Z,5.10
2022-09-29T19:36:45.067Z,5.03
2022-09-29T19:39:46.851Z,4.25
2022-09-29T19:42:45.503Z,4.82
2022-09-29T19:45:45.225Z,4.22
2022-09-29T19:48:44.029Z,5.15
2022-09-29T19:51:50.713Z,4.68
2022-09-29T19:54:49.170Z,4.18
2022-09-29T19:57:48.114Z,4.00
2022-09-29T20:00:46.508Z,4.60
2022-09-29T20:03:48.389Z,5.68
2022-09-29T20:06:46.911Z,3.72
2022-09-29T20:09:46.348Z,4.97
2022-09-29T20:12:45.437Z,4.68
2022-09-29T20:15:46.972Z,4.25
2022-09-29T20:18:48.695Z,4.47
2022-09-29T20:21:50.939Z,3.88
2022-09-29T20:24:49.407Z,3.55
2022-09-29T20:27:48.129Z,3.45
2022-09-29T20:30:46.634Z,3.38
2022-09-29T20:33:48.325Z,3.50
2022-09-29T20:36:52.161Z,3.67
2022-09-29T20:39:53.172Z,3.38
2022-09-29T20:42:53.104Z,2.95
2022-09-29T20:46:02.686Z,3.25
2022-09-29T20:49:03.590Z,3.20
2022-09-29T20:52:02.912Z,3.20
2022-09-29T20:55:03.047Z,3.30
2022-09-29T20:58:03.546Z,3.55
2022-09-29T21:01:19.197Z,4.25
2022-09-29T21:04:20.566Z,3.63
2022-09-29T21:07:34.428Z,4.05
2022-09-29T21:10:33.171Z,4.30
2022-09-29T21:13:32.268Z,3.75
2022-09-29T21:16:31.071Z,4.07
2022-09-29T21:19:29.502Z,3.72
2022-09-29T21:22:28.224Z,4.30
2022-09-29T21:25:27.827Z,4.45
2022-09-29T21:28:27.359Z,4.40
2022-09-29T21:31:30.446Z,4.40
2022-09-29T21:34:29.614Z,4.28
2022-09-29T21:37:27.915Z,4.80
2022-09-29T21:40:26.606Z,4.35
2022-09-29T21:43:24.944Z,4.25
2022-09-29T21:46:26.535Z,4.07
2022-09-29T21:49:24.976Z,3.90
2022-09-29T21:52:23.596Z,4.32
2022-09-29T21:55:21.939Z,3.72
2022-09-29T21:58:21.189Z,3.95
2022-09-29T22:01:20.246Z,4.22
2022-09-29T22:04:19.630Z,4.15
2022-09-29T22:07:17.996Z,4.13
2022-09-29T22:10:16.725Z,4.07
2022-09-29T22:13:15.091Z,3.58
2022-09-29T22:16:18.221Z,3.55
2022-09-29T22:19:25.080Z,3.50
2022-09-29T22:22:25.136Z,4.25
2022-09-29T22:25:33.036Z,3.78
2022-09-29T22:28:32.883Z,4.10
2022-09-29T22:31:32.664Z,3.72
2022-09-29T22:34:31.776Z,3.97
2022-09-29T22:37:31.247Z,3.70
2022-09-29T22:40:30.360Z,4.78
2022-09-29T22:43:28.933Z,3.70
2022-09-29T22:46:30.278Z,5.20
2022-09-29T22:49:28.937Z,5.50
2022-09-29T22:52:27.602Z,4.30
2022-09-29T22:55:27.784Z,4.22
2022-09-29T22:58:27.188Z,3.75
2022-09-29T23:01:27.214Z,4.07
2022-09-29T23:04:26.751Z,3.88
2022-09-29T23:07:25.107Z,4.50
2022-09-29T23:10:24.272Z,4.30
2022-09-29T23:13:23.555Z,4.47
2022-09-29T23:16:22.320Z,4.57
2022-09-29T23:19:20.634Z,5.15
2022-09-29T23:22:19.690Z,4.53
2022-09-29T23:25:18.079Z,4.40
2022-09-29T23:28:16.834Z,4.88
2022-09-29T23:31:15.787Z,4.57
2022-09-29T23:34:14.544Z,4.88
2022-09-29T23:37:13.139Z,4.30
2022-09-29T23:40:11.798Z,5.15
2022-09-29T23:43:10.259Z,5.85
2022-09-29T23:46:09.004Z,5.82
2022-09-29T23:49:10.238Z,4.40
2022-09-29T23:52:09.996Z,5.53
2022-09-29T23:55:09.015Z,4.82
2022-09-29T23:58:07.806Z,5.22
